Date,TemperatureHighF,TemperatureAvgF,TemperatureLowF,DewpointHighF,DewpointAvgF,DewpointLowF,HumidityHigh,HumidityAvg,HumidityLow,PressureMaxIn,PressureMinIn,WindSpeedMaxMPH,WindSpeedAvgMPH,GustSpeedMaxMPH,PrecipitationSumIn
2013-5-1,78.8,63.8,50.1,60.7,54.6,47.5,92,74,50,30.06,29.86,11,1,12,0.00
2013-5-2,95.2,73.4,46.9,49.5,24.7,-7.6,95,31,2,30.09,29.96,18,3,22,0.00
2013-5-3,98.8,73.8,51.7,41.2,28.1,10.4,45,22,5,30.00,29.72,13,2,17,0.00
2013-5-4,81.3,63.3,47.9,57.2,47.6,32.4,85,58,31,29.79,29.68,14,2,14,0.00
2013-5-5,69.5,59.9,55.1,53.3,51.2,49.3,87,74,54,29.90,29.78,8,1,9,0.00
2013-5-6,67.2,58.1,54.9,58.1,53.6,49.1,96,86,64,29.99,29.85,10,1,10,0.12
2013-5-7,72.2,59.5,51.5,55.9,51.6,48.1,93,76,48,30.03,29.95,11,1,12,0.00
2013-5-8,73.3,59.6,48.7,56.2,50.3,46.1,92,74,49,30.08,30.02,11,2,14,0.00
2013-5-9,76.3,60.8,47.9,57.3,51.8,45.6,93,75,49,30.07,29.98,10,2,13,0.00
2013-5-10,84.1,64.5,49.4,62.1,55.1,47.6,95,75,43,30.07,29.96,9,1,11,0.00
2013-5-11,87.1,67.0,49.7,63.2,56.7,48.3,96,73,44,30.03,29.95,10,1,11,0.00
2013-5-12,97.7,74.1,52.3,63.7,57.4,49.8,92,61,27,30.01,29.86,9,1,12,0.00
2013-5-13,95.5,73.7,55.8,62.2,54.6,45.4,88,55,24,29.93,29.83,9,1,10,0.00
2013-5-14,82.2,62.0,48.4,59.4,52.8,45.8,95,75,43,29.95,29.85,13,2,14,0.00
2013-5-15,76.0,61.0,48.5,59.5,52.7,46.3,94,76,54,30.01,29.90,12,2,14,0.00
2013-5-16,74.6,59.6,48.3,59.9,52.6,46.3,94,79,59,29.95,29.86,12,1,12,0.00
2013-5-17,75.4,62.0,51.5,59.8,53.6,48.9,92,76,55,29.95,29.88,14,2,16,0.00
2013-5-18,78.2,63.0,49.4,58.9,52.1,47.1,93,70,45,30.01,29.92,14,2,14,0.00
2013-5-19,82.1,64.4,48.1,58.5,51.8,44.6,90,67,40,29.96,29.82,12,2,12,0.00
2013-5-20,83.6,66.6,49.5,62.0,54.1,44.9,88,66,44,29.92,29.83,10,2,14,0.00
2013-5-21,81.5,64.4,51.3,63.5,55.2,46.1,91,73,53,29.91,29.78,12,2,13,0.00
2013-5-22,77.6,62.6,50.9,60.4,53.1,47.3,94,73,51,29.81,29.73,15,2,15,0.00
2013-5-23,71.3,59.6,49.3,56.1,50.0,45.2,91,72,47,29.91,29.79,14,2,14,0.00
2013-5-24,75.0,60.0,46.2,57.2,49.9,43.3,91,71,49,29.95,29.88,13,2,16,0.00
2013-5-25,74.6,60.4,47.8,56.9,50.3,44.6,91,71,49,29.99,29.93,14,2,15,0.00
2013-5-26,75.7,60.9,47.5,57.4,51.2,44.8,92,72,50,30.01,29.95,13,2,15,0.00
2013-5-27,80.3,64.0,49.2,59.7,53.4,46.0,91,71,46,29.97,29.80,11,2,11,0.00
2013-5-28,84.8,67.0,52.3,61.7,55.2,48.8,90,69,40,29.84,29.69,10,2,11,0.00
2013-5-29,86.5,68.1,51.2,61.8,54.5,47.5,90,65,33,29.77,29.66,10,2,12,0.00
2013-5-30,81.5,66.2,50.7,61.1,54.5,48.0,92,69,45,29.83,29.72,11,1,11,0.00
2013-5-31,81.8,65.8,51.9,63.9,56.2,48.9,93,73,52,29.89,29.76,11,1,11,0.00